This is the latest recevied weather packets stored in our database for station/object HS3EKL-1. If no packets are shown the sender has not sent any weather packets the latest 10 day(s).
| Time | Temp. | Humidity | Pressure | Rain* | Wind** | Luminosity | Snow |
|---|---|---|---|---|---|---|---|
| 1788136133 | 79° F | 90% | - | - | - | 0 W/m² | - |
| 1787790924 | 84° F | 81% | - | - | - | 0 W/m² | - |
| 1787790013 | 82° F | 82% | - | - | - | 0 W/m² | - |
| 1787756495 | 89° F | 74% | - | - | - | 0 W/m² | - |
| 1787755560 | 89° F | 74% | - | - | - | 0 W/m² | - |
| 1787754645 | 89° F | 74% | - | - | - | 0 W/m² | - |
| 1787753731 | 89° F | 74% | - | - | - | 0 W/m² | - |
| 1787752817 | 89° F | 74% | - | - | - | 0 W/m² | - |
| 1787751903 | 89° F | 74% | - | - | - | 0 W/m² | - |
| 1787750989 | 89° F | 75% | - | - | - | 0 W/m² | - |
| 1787750075 | 89° F | 75% | - | - | - | 0 W/m² | - |
| 1787749161 | 89° F | 75% | - | - | - | 0 W/m² | - |
| 1787748247 | 88° F | 76% | - | - | - | 0 W/m² | - |
| 1787747333 | 86° F | 79% | - | - | - | 0 W/m² | - |
| 1787702942 | 80° F | 86% | - | - | - | 0 W/m² | - |
| 1787618204 | 32° F | 100% | - | - | - | 0 W/m² | - |
| 1787617290 | 81° F | 83% | - | - | - | 0 W/m² | - |
| 1787532750 | 80° F | 87% | - | - | - | 0 W/m² | - |
| 1787489984 | 85° F | 81% | - | - | - | 0 W/m² | - |
| 1787489070 | 84° F | 85% | - | - | - | 0 W/m² | - |
| 1787401641 | 84° F | 83% | - | - | - | 0 W/m² | - |
| 1787362877 | 80° F | 86% | - | - | - | 0 W/m² | - |
* Rain since midnight (hover to see other rain measurements)
** Current wind speed in m/s (hover to see current wind gust speed)